sensor_id;sensor_type;location;lat;lon;timestamp;pressure;altitude;pressure_sealevel;temperature;humidity
4590;BME280;2307;48.448;9.216;2023-04-01T00:01:35;94177.22;;;7.58;100.00
4590;BME280;2307;48.448;9.216;2023-04-01T00:04:01;94174.47;;;7.47;100.00
4590;BME280;2307;48.448;9.216;2023-04-01T00:06:28;94183.69;;;7.50;100.00
4590;BME280;2307;48.448;9.216;2023-04-01T00:08:56;94214.00;;;7.58;100.00
4590;BME280;2307;48.448;9.216;2023-04-01T00:11:22;94203.56;;;7.63;100.00
4590;BME280;2307;48.448;9.216;2023-04-01T00:13:49;94180.34;;;7.55;100.00
4590;BME280;2307;48.448;9.216;2023-04-01T00:16:15;94179.75;;;7.47;100.00
4590;BME280;2307;48.448;9.216;2023-04-01T00:18:42;94188.41;;;7.48;100.00
4590;BME280;2307;48.448;9.216;2023-04-01T00:21:08;94173.38;;;7.43;100.00
4590;BME280;2307;48.448;9.216;2023-04-01T00:23:34;94177.09;;;7.47;100.00
4590;BME280;2307;48.448;9.216;2023-04-01T00:26:03;94180.03;;;7.51;100.00
4590;BME280;2307;48.448;9.216;2023-04-01T00:28:30;94167.75;;;7.57;100.00
4590;BME280;2307;48.448;9.216;2023-04-01T00:30:56;94166.41;;;7.54;100.00
4590;BME280;2307;48.448;9.216;2023-04-01T00:33:23;94176.16;;;7.59;100.00
4590;BME280;2307;48.448;9.216;2023-04-01T00:35:49;94190.38;;;7.58;100.00
4590;BME280;2307;48.448;9.216;2023-04-01T00:38:16;94177.78;;;7.60;100.00
4590;BME280;2307;48.448;9.216;2023-04-01T00:40:45;94187.78;;;7.63;100.00
4590;BME280;2307;48.448;9.216;2023-04-01T00:43:14;94187.00;;;7.62;100.00
4590;BME280;2307;48.448;9.216;2023-04-01T00:45:44;94180.94;;;7.62;100.00
4590;BME280;2307;48.448;9.216;2023-04-01T00:48:11;94190.19;;;7.64;100.00
4590;BME280;2307;48.448;9.216;2023-04-01T00:50:39;94185.97;;;7.63;100.00
4590;BME280;2307;48.448;9.216;2023-04-01T00:53:07;94184.00;;;7.54;100.00
4590;BME280;2307;48.448;9.216;2023-04-01T00:55:35;94182.38;;;7.47;100.00
4590;BME280;2307;48.448;9.216;2023-04-01T00:58:03;94172.56;;;7.43;100.00
4590;BME280;2307;48.448;9.216;2023-04-01T01:00:32;94183.09;;;7.43;100.00
4590;BME280;2307;48.448;9.216;2023-04-01T01:02:59;94178.09;;;7.41;100.00
4590;BME280;2307;48.448;9.216;2023-04-01T01:05:29;94171.97;;;7.36;100.00
4590;BME280;2307;48.448;9.216;2023-04-01T01:08:03;94180.41;;;7.38;100.00
4590;BME280;2307;48.448;9.216;2023-04-01T01:10:33;94185.97;;;7.41;100.00
4590;BME280;2307;48.448;9.216;2023-04-01T01:13:03;94177.53;;;7.39;100.00
4590;BME280;2307;48.448;9.216;2023-04-01T01:15:34;94175.19;;;7.43;100.00
4590;BME280;2307;48.448;9.216;2023-04-01T01:18:03;94174.97;;;7.44;100.00
4590;BME280;2307;48.448;9.216;2023-04-01T01:20:39;94172.88;;;7.46;100.00
4590;BME280;2307;48.448;9.216;2023-04-01T01:23:22;94156.09;;;7.47;100.00
4590;BME280;2307;48.448;9.216;2023-04-01T01:25:56;94170.69;;;7.38;100.00
4590;BME280;2307;48.448;9.216;2023-04-01T01:28:31;94159.63;;;7.36;100.00
4590;BME280;2307;48.448;9.216;2023-04-01T01:31:00;94166.00;;;7.40;100.00
4590;BME280;2307;48.448;9.216;2023-04-01T01:33:39;94162.25;;;7.36;100.00
4590;BME280;2307;48.448;9.216;2023-04-01T01:36:12;94166.22;;;7.39;100.00
4590;BME280;2307;48.448;9.216;2023-04-01T01:38:40;94166.59;;;7.47;100.00
4590;BME280;2307;48.448;9.216;2023-04-01T01:41:07;94160.28;;;7.48;100.00
4590;BME280;2307;48.448;9.216;2023-04-01T01:43:36;94160.00;;;7.45;100.00
4590;BME280;2307;48.448;9.216;2023-04-01T01:46:05;94155.97;;;7.37;100.00
4590;BME280;2307;48.448;9.216;2023-04-01T01:48:34;94152.38;;;7.43;100.00
4590;BME280;2307;48.448;9.216;2023-04-01T01:51:01;94167.09;;;7.44;100.00
4590;BME280;2307;48.448;9.216;2023-04-01T01:53:30;94180.34;;;7.55;100.00
4590;BME280;2307;48.448;9.216;2023-04-01T01:55:56;94167.22;;;7.55;100.00
4590;BME280;2307;48.448;9.216;2023-04-01T01:58:23;94170.06;;;7.53;100.00
4590;BME280;2307;48.448;9.216;2023-04-01T02:00:52;94170.59;;;7.55;100.00
4590;BME280;2307;48.448;9.216;2023-04-01T02:03:19;94189.88;;;7.61;100.00
4590;BME280;2307;48.448;9.216;2023-04-01T02:05:46;94176.84;;;7.49;100.00
4590;BME280;2307;48.448;9.216;2023-04-01T02:08:14;94174.47;;;7.47;100.00
4590;BME280;2307;48.448;9.216;2023-04-01T02:10:43;94171.59;;;7.49;100.00
4590;BME280;2307;48.448;9.216;2023-04-01T02:13:13;94175.78;;;7.45;100.00
4590;BME280;2307;48.448;9.216;2023-04-01T02:15:42;94173.38;;;7.43;100.00
4590;BME280;2307;48.448;9.216;2023-04-01T02:18:11;94178.09;;;7.41;100.00
4590;BME280;2307;48.448;9.216;2023-04-01T02:20:39;94183.88;;;7.43;100.00
4590;BME280;2307;48.448;9.216;2023-04-01T02:23:07;94176.00;;;7.43;100.00
4590;BME280;2307;48.448;9.216;2023-04-01T02:25:34;94179.78;;;7.31;100.00
4590;BME280;2307;48.448;9.216;2023-04-01T02:28:02;94195.97;;;7.23;100.00
4590;BME280;2307;48.448;9.216;2023-04-01T02:30:31;94179.03;;;7.14;100.00
4590;BME280;2307;48.448;9.216;2023-04-01T02:32:58;94181.91;;;7.12;100.00
4590;BME280;2307;48.448;9.216;2023-04-01T02:35:24;94173.00;;;7.13;100.00
4590;BME280;2307;48.448;9.216;2023-04-01T02:37:52;94210.31;;;7.15;100.00
4590;BME280;2307;48.448;9.216;2023-04-01T02:40:18;94193.53;;;7.16;100.00
4590;BME280;2307;48.448;9.216;2023-04-01T02:42:45;94199.81;;;7.15;100.00
4590;BME280;2307;48.448;9.216;2023-04-01T02:45:13;94201.25;;;7.06;100.00
4590;BME280;2307;48.448;9.216;2023-04-01T02:47:40;94188.94;;;7.07;100.00
4590;BME280;2307;48.448;9.216;2023-04-01T02:50:07;94179.56;;;6.94;100.00
4590;BME280;2307;48.448;9.216;2023-04-01T02:52:33;94180.22;;;6.84;100.00
4590;BME280;2307;48.448;9.216;2023-04-01T02:55:00;94218.47;;;6.80;100.00
4590;BME280;2307;48.448;9.216;2023-04-01T02:57:26;94205.03;;;6.77;100.00
4590;BME280;2307;48.448;9.216;2023-04-01T02:59:52;94192.41;;;6.74;100.00
4590;BME280;2307;48.448;9.216;2023-04-01T03:02:20;94209.66;;;6.70;100.00
4590;BME280;2307;48.448;9.216;2023-04-01T03:04:47;94184.69;;;6.67;100.00
4590;BME280;2307;48.448;9.216;2023-04-01T03:07:13;94179.75;;;6.54;100.00
4590;BME280;2307;48.448;9.216;2023-04-01T03:09:39;94192.50;;;6.46;100.00
4590;BME280;2307;48.448;9.216;2023-04-01T03:12:06;94164.66;;;6.28;100.00
4590;BME280;2307;48.448;9.216;2023-04-01T03:14:32;94175.00;;;6.18;100.00
4590;BME280;2307;48.448;9.216;2023-04-01T03:16:58;94156.00;;;6.11;100.00
4590;BME280;2307;48.448;9.216;2023-04-01T03:19:26;94164.81;;;6.05;100.00
4590;BME280;2307;48.448;9.216;2023-04-01T03:21:53;94178.16;;;6.03;100.00
4590;BME280;2307;48.448;9.216;2023-04-01T03:24:19;94178.16;;;6.03;100.00
4590;BME280;2307;48.448;9.216;2023-04-01T03:26:46;94166.56;;;5.99;100.00
4590;BME280;2307;48.448;9.216;2023-04-01T03:29:12;94176.09;;;6.05;100.00
4590;BME280;2307;48.448;9.216;2023-04-01T03:31:40;94181.25;;;6.00;100.00
4590;BME280;2307;48.448;9.216;2023-04-01T03:34:07;94181.63;;;5.92;100.00
4590;BME280;2307;48.448;9.216;2023-04-01T03:36:35;94163.19;;;5.87;100.00
4590;BME280;2307;48.448;9.216;2023-04-01T03:39:01;94169.66;;;5.84;100.00
4590;BME280;2307;48.448;9.216;2023-04-01T03:41:28;94167.19;;;5.78;100.00
4590;BME280;2307;48.448;9.216;2023-04-01T03:43:55;94167.19;;;5.90;100.00
4590;BME280;2307;48.448;9.216;2023-04-01T03:46:22;94172.59;;;6.00;100.00
4590;BME280;2307;48.448;9.216;2023-04-01T03:48:48;94169.75;;;6.01;100.00
4590;BME280;2307;48.448;9.216;2023-04-01T03:51:14;94163.69;;;6.01;100.00
4590;BME280;2307;48.448;9.216;2023-04-01T03:53:42;94162.91;;;6.00;100.00
4590;BME280;2307;48.448;9.216;2023-04-01T03:56:09;94174.03;;;6.07;100.00
4590;BME280;2307;48.448;9.216;2023-04-01T03:58:36;94176.19;;;6.10;100.00
4590;BME280;2307;48.448;9.216;2023-04-01T04:01:03;94175.81;;;6.18;100.00
4590;BME280;2307;48.448;9.216;2023-04-01T04:03:38;94163.25;;;6.20;100.00
4590;BME280;2307;48.448;9.216;2023-04-01T04:06:05;94153.88;;;6.24;100.00
4590;BME280;2307;48.448;9.216;2023-04-01T04:08:31;94168.19;;;6.33;100.00
4590;BME280;2307;48.448;9.216;2023-04-01T04:10:59;94160.97;;;6.40;100.00
4590;BME280;2307;48.448;9.216;2023-04-01T04:13:25;94142.13;;;6.44;100.00
4590;BME280;2307;48.448;9.216;2023-04-01T04:15:52;94143.16;;;6.43;100.00
4590;BME280;2307;48.448;9.216;2023-04-01T04:18:19;94141.06;;;6.45;100.00
4590;BME280;2307;48.448;9.216;2023-04-01T04:20:46;94151.66;;;6.50;100.00
4590;BME280;2307;48.448;9.216;2023-04-01T04:23:13;94151.16;;;6.53;100.00
4590;BME280;2307;48.448;9.216;2023-04-01T04:25:39;94146.41;;;6.50;100.00
4590;BME280;2307;48.448;9.216;2023-04-01T04:28:07;94135.97;;;6.55;100.00
4590;BME280;2307;48.448;9.216;2023-04-01T04:30:34;94150.13;;;6.54;100.00
4590;BME280;2307;48.448;9.216;2023-04-01T04:33:00;94141.78;;;6.57;100.00
4590;BME280;2307;48.448;9.216;2023-04-01T04:35:26;94142.09;;;6.60;100.00
4590;BME280;2307;48.448;9.216;2023-04-01T04:37:53;94151.69;;;6.71;100.00
4590;BME280;2307;48.448;9.216;2023-04-01T04:40:19;94151.38;;;6.68;100.00
4590;BME280;2307;48.448;9.216;2023-04-01T04:42:46;94141.03;;;6.78;100.00
4590;BME280;2307;48.448;9.216;2023-04-01T04:45:13;94145.22;;;6.79;100.00
4590;BME280;2307;48.448;9.216;2023-04-01T04:47:40;94135.78;;;6.78;100.00
4590;BME280;2307;48.448;9.216;2023-04-01T04:50:07;94139.00;;;6.85;100.00
4590;BME280;2307;48.448;9.216;2023-04-01T04:52:33;94162.56;;;6.80;100.00
4590;BME280;2307;48.448;9.216;2023-04-01T04:55:00;94152.63;;;6.82;100.00
4590;BME280;2307;48.448;9.216;2023-04-01T04:57:26;94150.97;;;6.76;100.00
4590;BME280;2307;48.448;9.216;2023-04-01T04:59:52;94152.50;;;6.72;100.00
4590;BME280;2307;48.448;9.216;2023-04-01T05:02:20;94169.81;;;6.73;100.00
4590;BME280;2307;48.448;9.216;2023-04-01T05:04:47;94150.00;;;6.82;100.00
4590;BME280;2307;48.448;9.216;2023-04-01T05:07:13;94172.53;;;6.78;100.00
4590;BME280;2307;48.448;9.216;2023-04-01T05:09:40;94145.38;;;6.89;100.00
4590;BME280;2307;48.448;9.216;2023-04-01T05:12:06;94162.19;;;6.88;100.00
4590;BME280;2307;48.448;9.216;2023-04-01T05:14:32;94162.72;;;6.90;100.00
4590;BME280;2307;48.448;9.216;2023-04-01T05:16:59;94170.81;;;6.88;100.00
4590;BME280;2307;48.448;9.216;2023-04-01T05:19:26;94156.97;;;6.93;100.00
4590;BME280;2307;48.448;9.216;2023-04-01T05:21:53;94183.78;;;6.95;100.00
4590;BME280;2307;48.448;9.216;2023-04-01T05:24:19;94157.84;;;6.99;100.00
4590;BME280;2307;48.448;9.216;2023-04-01T05:26:46;94153.69;;;7.03;100.00
4590;BME280;2307;48.448;9.216;2023-04-01T05:29:12;94156.16;;;7.09;100.00
4590;BME280;2307;48.448;9.216;2023-04-01T05:31:38;94148.81;;;7.11;100.00
4590;BME280;2307;48.448;9.216;2023-04-01T05:34:05;94155.13;;;7.10;100.00
4590;BME280;2307;48.448;9.216;2023-04-01T05:36:32;94124.97;;;7.13;100.00
4590;BME280;2307;48.448;9.216;2023-04-01T05:38:59;94121.59;;;7.17;100.00
4590;BME280;2307;48.448;9.216;2023-04-01T05:41:25;94140.53;;;7.19;100.00
4590;BME280;2307;48.448;9.216;2023-04-01T05:43:52;94126.66;;;7.24;100.00
4590;BME280;2307;48.448;9.216;2023-04-01T05:46:18;94137.94;;;7.24;100.00
4590;BME280;2307;48.448;9.216;2023-04-01T05:48:44;94149.56;;;7.28;100.00
4590;BME280;2307;48.448;9.216;2023-04-01T05:51:12;94130.91;;;7.30;100.00
4590;BME280;2307;48.448;9.216;2023-04-01T05:53:39;94142.53;;;7.34;100.00
4590;BME280;2307;48.448;9.216;2023-04-01T05:56:06;94145.47;;;7.37;100.00
4590;BME280;2307;48.448;9.216;2023-04-01T05:58:34;94126.63;;;7.45;100.00
4590;BME280;2307;48.448;9.216;2023-04-01T06:01:01;94131.97;;;7.51;100.00
4590;BME280;2307;48.448;9.216;2023-04-01T06:03:28;94128.00;;;7.48;100.00
4590;BME280;2307;48.448;9.216;2023-04-01T06:05:54;94122.56;;;7.55;100.00
4590;BME280;2307;48.448;9.216;2023-04-01T06:08:21;94116.81;;;7.58;100.00
4590;BME280;2307;48.448;9.216;2023-04-01T06:10:51;94111.59;;;7.63;100.00
4590;BME280;2307;48.448;9.216;2023-04-01T06:13:21;94119.00;;;7.71;100.00
4590;BME280;2307;48.448;9.216;2023-04-01T06:15:52;94108.56;;;7.76;100.00
4590;BME280;2307;48.448;9.216;2023-04-01T06:18:35;94117.78;;;7.78;100.00
4590;BME280;2307;48.448;9.216;2023-04-01T06:21:04;94115.69;;;7.80;100.00
4590;BME280;2307;48.448;9.216;2023-04-01T06:23:39;94142.34;;;7.89;100.00
4590;BME280;2307;48.448;9.216;2023-04-01T06:26:14;94099.78;;;7.92;100.00
4590;BME280;2307;48.448;9.216;2023-04-01T06:28:47;94119.50;;;7.89;100.00
4590;BME280;2307;48.448;9.216;2023-04-01T06:31:25;94109.75;;;7.90;100.00
4590;BME280;2307;48.448;9.216;2023-04-01T06:34:08;94119.75;;;7.93;100.00
4590;BME280;2307;48.448;9.216;2023-04-01T06:36:47;94104.03;;;7.98;100.00
4590;BME280;2307;48.448;9.216;2023-04-01T06:39:22;94109.03;;;7.99;100.00
4590;BME280;2307;48.448;9.216;2023-04-01T06:42:04;94121.97;;;8.06;100.00
4590;BME280;2307;48.448;9.216;2023-04-01T06:44:37;94111.53;;;8.11;100.00
4590;BME280;2307;48.448;9.216;2023-04-01T06:47:10;94103.03;;;8.04;100.00
4590;BME280;2307;48.448;9.216;2023-04-01T06:49:44;94113.94;;;8.18;100.00
4590;BME280;2307;48.448;9.216;2023-04-01T06:52:16;94105.75;;;8.14;100.00
4590;BME280;2307;48.448;9.216;2023-04-01T06:54:47;94100.00;;;8.17;100.00
4590;BME280;2307;48.448;9.216;2023-04-01T06:57:19;94101.84;;;8.22;100.00
4590;BME280;2307;48.448;9.216;2023-04-01T06:59:46;94084.81;;;8.24;100.00
4590;BME280;2307;48.448;9.216;2023-04-01T07:02:16;94107.50;;;8.30;100.00
4590;BME280;2307;48.448;9.216;2023-04-01T07:04:46;94102.25;;;8.30;100.00
4590;BME280;2307;48.448;9.216;2023-04-01T07:07:15;94115.06;;;8.27;100.00
4590;BME280;2307;48.448;9.216;2023-04-01T07:09:47;94112.50;;;8.32;100.00
4590;BME280;2307;48.448;9.216;2023-04-01T07:12:17;94095.41;;;8.34;100.00
4590;BME280;2307;48.448;9.216;2023-04-01T07:14:49;94099.19;;;8.43;100.00
4590;BME280;2307;48.448;9.216;2023-04-01T07:17:16;94098.69;;;8.46;100.00
4590;BME280;2307;48.448;9.216;2023-04-01T07:19:44;94122.84;;;8.43;100.00
4590;BME280;2307;48.448;9.216;2023-04-01T07:22:15;94105.72;;;8.41;100.00
4590;BME280;2307;48.448;9.216;2023-04-01T07:24:44;94097.59;;;8.47;100.00
4590;BME280;2307;48.448;9.216;2023-04-01T07:27:11;94113.75;;;8.56;100.00
4590;BME280;2307;48.448;9.216;2023-04-01T07:29:38;94110.31;;;8.61;100.00
4590;BME280;2307;48.448;9.216;2023-04-01T07:32:11;94100.88;;;8.65;100.00
4590;BME280;2307;48.448;9.216;2023-04-01T07:34:42;94110.41;;;8.71;100.00
4590;BME280;2307;48.448;9.216;2023-04-01T07:37:25;94106.50;;;8.78;100.00
4590;BME280;2307;48.448;9.216;2023-04-01T07:39:54;94105.41;;;8.74;100.00
4590;BME280;2307;48.448;9.216;2023-04-01T07:42:24;94114.94;;;8.80;100.00
4590;BME280;2307;48.448;9.216;2023-04-01T07:44:58;94113.91;;;8.86;100.00
4590;BME280;2307;48.448;9.216;2023-04-01T07:50:11;94106.25;;;8.80;100.00
4590;BME280;2307;48.448;9.216;2023-04-01T07:52:41;94112.53;;;8.79;100.00
4590;BME280;2307;48.448;9.216;2023-04-01T07:55:12;94127.81;;;8.82;100.00
4590;BME280;2307;48.448;9.216;2023-04-01T07:57:41;94127.28;;;8.80;100.00
4590;BME280;2307;48.448;9.216;2023-04-01T08:00:10;94128.34;;;8.79;100.00
4590;BME280;2307;48.448;9.216;2023-04-01T08:02:44;94119.41;;;8.85;100.00
4590;BME280;2307;48.448;9.216;2023-04-01T08:05:17;94122.59;;;8.87;100.00
4590;BME280;2307;48.448;9.216;2023-04-01T08:07:47;94126.25;;;8.81;100.00
4590;BME280;2307;48.448;9.216;2023-04-01T08:10:18;94121.31;;;8.94;100.00
4590;BME280;2307;48.448;9.216;2023-04-01T08:12:48;94137.91;;;8.90;100.00
4590;BME280;2307;48.448;9.216;2023-04-01T08:15:20;94126.28;;;8.86;100.00
4590;BME280;2307;48.448;9.216;2023-04-01T08:17:52;94130.22;;;8.88;100.00
4590;BME280;2307;48.448;9.216;2023-04-01T08:20:25;94118.38;;;8.86;100.00
4590;BME280;2307;48.448;9.216;2023-04-01T08:22:57;94129.19;;;8.84;100.00
4590;BME280;2307;48.448;9.216;2023-04-01T08:25:24;94136.84;;;8.91;100.00
4590;BME280;2307;48.448;9.216;2023-04-01T08:27:51;94129.72;;;8.86;100.00
4590;BME280;2307;48.448;9.216;2023-04-01T08:30:20;94127.81;;;8.82;100.00
4590;BME280;2307;48.448;9.216;2023-04-01T08:32:47;94138.97;;;8.94;100.00
4590;BME280;2307;48.448;9.216;2023-04-01T08:35:18;94133.97;;;8.97;100.00
4590;BME280;2307;48.448;9.216;2023-04-01T08:37:48;94135.34;;;9.05;100.00
4590;BME280;2307;48.448;9.216;2023-04-01T08:40:22;94152.19;;;9.04;100.00
4590;BME280;2307;48.448;9.216;2023-04-01T08:42:57;94145.41;;;9.13;100.00
4590;BME280;2307;48.448;9.216;2023-04-01T08:48:28;94163.00;;;9.07;100.00
4590;BME280;2307;48.448;9.216;2023-04-01T08:53:56;94138.50;;;9.07;100.00
4590;BME280;2307;48.448;9.216;2023-04-01T08:56:27;94143.53;;;9.08;100.00
4590;BME280;2307;48.448;9.216;2023-04-01T08:59:04;94150.09;;;9.06;100.00
4590;BME280;2307;48.448;9.216;2023-04-01T09:01:43;94143.28;;;9.15;100.00
4590;BME280;2307;48.448;9.216;2023-04-01T09:04:32;94145.34;;;9.03;100.00
4590;BME280;2307;48.448;9.216;2023-04-01T09:07:07;94172.69;;;8.97;100.00
4590;BME280;2307;48.448;9.216;2023-04-01T09:09:43;94146.91;;;9.04;100.00
4590;BME280;2307;48.448;9.216;2023-04-01T09:15:20;94159.53;;;8.97;100.00
4590;BME280;2307;48.448;9.216;2023-04-01T09:18:13;94153.63;;;8.85;100.00
4590;BME280;2307;48.448;9.216;2023-04-01T09:20:44;94152.06;;;8.84;100.00
4590;BME280;2307;48.448;9.216;2023-04-01T09:23:35;94159.47;;;8.92;100.00
4590;BME280;2307;48.448;9.216;2023-04-01T09:26:13;94147.13;;;8.92;100.00
4590;BME280;2307;48.448;9.216;2023-04-01T09:28:44;94151.06;;;8.90;100.00
4590;BME280;2307;48.448;9.216;2023-04-01T09:31:17;94164.72;;;8.87;100.00
4590;BME280;2307;48.448;9.216;2023-04-01T09:33:59;94174.31;;;9.03;100.00
4590;BME280;2307;48.448;9.216;2023-04-01T09:36:38;94178.00;;;9.07;100.00
4590;BME280;2307;48.448;9.216;2023-04-01T09:39:13;94153.25;;;9.08;100.00
4590;BME280;2307;48.448;9.216;2023-04-01T09:41:49;94178.50;;;8.99;100.00
4590;BME280;2307;48.448;9.216;2023-04-01T09:44:22;94173.00;;;9.05;100.00
4590;BME280;2307;48.448;9.216;2023-04-01T09:46:58;94193.19;;;8.90;100.00
4590;BME280;2307;48.448;9.216;2023-04-01T09:49:47;94199.09;;;8.70;100.00
4590;BME280;2307;48.448;9.216;2023-04-01T09:52:24;94197.75;;;8.68;100.00
4590;BME280;2307;48.448;9.216;2023-04-01T09:54:56;94188.78;;;8.64;100.00
4590;BME280;2307;48.448;9.216;2023-04-01T10:00:18;94205.44;;;8.74;100.00
4590;BME280;2307;48.448;9.216;2023-04-01T10:03:02;94188.88;;;8.79;100.00
4590;BME280;2307;48.448;9.216;2023-04-01T10:05:59;94191.00;;;8.82;100.00
4590;BME280;2307;48.448;9.216;2023-04-01T10:08:36;94202.72;;;9.01;100.00
4590;BME280;2307;48.448;9.216;2023-04-01T10:11:14;94204.34;;;9.07;100.00
4590;BME280;2307;48.448;9.216;2023-04-01T10:16:43;94201.31;;;9.25;100.00
4590;BME280;2307;48.448;9.216;2023-04-01T10:22:00;94193.53;;;8.67;100.00
4590;BME280;2307;48.448;9.216;2023-04-01T10:24:42;94196.59;;;8.53;100.00
4590;BME280;2307;48.448;9.216;2023-04-01T10:27:27;94200.41;;;8.36;100.00
4590;BME280;2307;48.448;9.216;2023-04-01T10:49:13;94209.44;;;8.23;100.00
4590;BME280;2307;48.448;9.216;2023-04-01T10:51:55;94203.22;;;8.29;100.00
4590;BME280;2307;48.448;9.216;2023-04-01T10:54:33;94211.72;;;8.36;100.00
4590;BME280;2307;48.448;9.216;2023-04-01T10:57:07;94215.72;;;8.44;100.00
4590;BME280;2307;48.448;9.216;2023-04-01T10:59:51;94212.31;;;8.43;100.00
4590;BME280;2307;48.448;9.216;2023-04-01T11:05:24;94214.00;;;8.60;100.00
4590;BME280;2307;48.448;9.216;2023-04-01T11:11:03;94198.22;;;8.60;100.00
4590;BME280;2307;48.448;9.216;2023-04-01T11:13:55;94219.75;;;8.88;100.00
4590;BME280;2307;48.448;9.216;2023-04-01T11:16:45;94197.97;;;8.98;100.00
4590;BME280;2307;48.448;9.216;2023-04-01T11:25:00;94222.41;;;9.30;100.00
4590;BME280;2307;48.448;9.216;2023-04-01T11:30:20;94215.06;;;9.42;100.00
4590;BME280;2307;48.448;9.216;2023-04-01T11:32:53;94248.28;;;9.38;100.00
4590;BME280;2307;48.448;9.216;2023-04-01T11:38:13;94221.72;;;9.08;100.00
4590;BME280;2307;48.448;9.216;2023-04-01T11:40:45;94245.31;;;8.88;100.00
4590;BME280;2307;48.448;9.216;2023-04-01T11:43:14;94231.00;;;8.79;100.00
4590;BME280;2307;48.448;9.216;2023-04-01T11:45:43;94231.38;;;8.61;100.00
4590;BME280;2307;48.448;9.216;2023-04-01T11:48:14;94245.53;;;8.54;100.00
4590;BME280;2307;48.448;9.216;2023-04-01T11:50:59;94238.75;;;8.59;100.00
4590;BME280;2307;48.448;9.216;2023-04-01T11:53:47;94239.91;;;8.73;100.00
4590;BME280;2307;48.448;9.216;2023-04-01T11:56:23;94230.75;;;8.80;100.00
4590;BME280;2307;48.448;9.216;2023-04-01T11:59:03;94223.75;;;8.96;100.00
4590;BME280;2307;48.448;9.216;2023-04-01T12:01:34;94230.91;;;9.00;100.00
4590;BME280;2307;48.448;9.216;2023-04-01T12:06:54;94238.63;;;9.12;100.00
4590;BME280;2307;48.448;9.216;2023-04-01T12:09:28;94240.31;;;9.28;100.00
4590;BME280;2307;48.448;9.216;2023-04-01T12:12:03;94231.63;;;9.33;100.00
4590;BME280;2307;48.448;9.216;2023-04-01T12:14:39;94246.91;;;9.31;100.00
4590;BME280;2307;48.448;9.216;2023-04-01T12:17:10;94256.56;;;9.20;100.00
4590;BME280;2307;48.448;9.216;2023-04-01T12:19:43;94245.41;;;9.03;100.00
4590;BME280;2307;48.448;9.216;2023-04-01T12:22:12;94242.66;;;8.88;100.00
4590;BME280;2307;48.448;9.216;2023-04-01T12:24:46;94249.28;;;8.95;100.00
4590;BME280;2307;48.448;9.216;2023-04-01T12:27:22;94263.50;;;8.94;100.00
4590;BME280;2307;48.448;9.216;2023-04-01T12:29:54;94260.63;;;8.96;100.00
4590;BME280;2307;48.448;9.216;2023-04-01T12:32:30;94253.81;;;9.00;100.00
4590;BME280;2307;48.448;9.216;2023-04-01T12:35:01;94254.81;;;8.94;100.00
4590;BME280;2307;48.448;9.216;2023-04-01T12:37:34;94250.81;;;8.86;100.00
4590;BME280;2307;48.448;9.216;2023-04-01T12:40:13;94260.50;;;8.81;100.00
4590;BME280;2307;48.448;9.216;2023-04-01T12:42:57;94265.97;;;8.74;100.00
4590;BME280;2307;48.448;9.216;2023-04-01T12:45:29;94250.72;;;8.76;100.00
4590;BME280;2307;48.448;9.216;2023-04-01T12:48:01;94253.53;;;8.65;100.00
4590;BME280;2307;48.448;9.216;2023-04-01T12:50:34;94273.09;;;8.74;100.00
4590;BME280;2307;48.448;9.216;2023-04-01T12:53:08;94257.53;;;8.72;100.00
4590;BME280;2307;48.448;9.216;2023-04-01T12:55:39;94270.06;;;8.92;100.00
4590;BME280;2307;48.448;9.216;2023-04-01T12:58:13;94260.03;;;8.89;100.00
4590;BME280;2307;48.448;9.216;2023-04-01T13:00:46;94256.69;;;8.98;100.00
4590;BME280;2307;48.448;9.216;2023-04-01T13:03:22;94272.78;;;9.02;100.00
4590;BME280;2307;48.448;9.216;2023-04-01T13:05:59;94271.97;;;8.96;100.00
4590;BME280;2307;48.448;9.216;2023-04-01T13:08:34;94248.59;;;9.10;100.00
4590;BME280;2307;48.448;9.216;2023-04-01T13:11:09;94262.84;;;9.14;100.00
4590;BME280;2307;48.448;9.216;2023-04-01T13:16:19;94245.03;;;9.26;100.00
4590;BME280;2307;48.448;9.216;2023-04-01T13:18:52;94232.91;;;9.25;100.00
4590;BME280;2307;48.448;9.216;2023-04-01T13:21:23;94251.38;;;9.30;100.00
4590;BME280;2307;48.448;9.216;2023-04-01T13:23:55;94254.31;;;9.39;100.00
4590;BME280;2307;48.448;9.216;2023-04-01T13:26:27;94248.59;;;9.52;100.00
4590;BME280;2307;48.448;9.216;2023-04-01T13:28:56;94257.47;;;9.83;100.00
4590;BME280;2307;48.448;9.216;2023-04-01T13:31:29;94258.47;;;9.77;100.00
4590;BME280;2307;48.448;9.216;2023-04-01T13:34:00;94276.44;;;9.85;100.00
4590;BME280;2307;48.448;9.216;2023-04-01T13:36:33;94262.69;;;9.78;100.00
4590;BME280;2307;48.448;9.216;2023-04-01T13:39:09;94267.97;;;9.73;100.00
4590;BME280;2307;48.448;9.216;2023-04-01T13:41:47;94266.34;;;9.67;100.00
4590;BME280;2307;48.448;9.216;2023-04-01T13:44:18;94283.22;;;9.71;100.00
4590;BME280;2307;48.448;9.216;2023-04-01T13:46:52;94275.06;;;9.67;100.00
4590;BME280;2307;48.448;9.216;2023-04-01T13:49:26;94261.06;;;9.67;100.00
4590;BME280;2307;48.448;9.216;2023-04-01T13:52:16;94264.28;;;9.79;100.00
4590;BME280;2307;48.448;9.216;2023-04-01T13:54:55;94273.28;;;9.88;100.00
4590;BME280;2307;48.448;9.216;2023-04-01T13:57:29;94276.09;;;9.66;100.00
4590;BME280;2307;48.448;9.216;2023-04-01T14:02:53;94288.75;;;9.69;100.00
4590;BME280;2307;48.448;9.216;2023-04-01T14:05:39;94284.81;;;9.67;100.00
4590;BME280;2307;48.448;9.216;2023-04-01T14:08:15;94286.66;;;9.71;100.00
4590;BME280;2307;48.448;9.216;2023-04-01T14:10:44;94281.66;;;9.70;100.00
4590;BME280;2307;48.448;9.216;2023-04-01T14:13:17;94282.75;;;9.79;100.00
4590;BME280;2307;48.448;9.216;2023-04-01T14:15:50;94285.91;;;9.76;100.00
4590;BME280;2307;48.448;9.216;2023-04-01T14:21:10;94319.63;;;9.74;100.00
4590;BME280;2307;48.448;9.216;2023-04-01T14:26:21;94305.16;;;9.81;100.00
4590;BME280;2307;48.448;9.216;2023-04-01T14:28:50;94282.16;;;9.67;100.00
4590;BME280;2307;48.448;9.216;2023-04-01T14:31:34;94306.13;;;9.65;100.00
4590;BME280;2307;48.448;9.216;2023-04-01T14:34:08;94306.94;;;9.71;100.00
4590;BME280;2307;48.448;9.216;2023-04-01T14:36:43;94305.41;;;9.75;100.00
4590;BME280;2307;48.448;9.216;2023-04-01T14:41:56;94300.75;;;9.92;100.00
4590;BME280;2307;48.448;9.216;2023-04-01T14:47:20;94301.19;;;9.79;100.00
4590;BME280;2307;48.448;9.216;2023-04-01T14:49:51;94308.53;;;9.72;100.00
4590;BME280;2307;48.448;9.216;2023-04-01T14:52:24;94302.19;;;9.68;100.00
4590;BME280;2307;48.448;9.216;2023-04-01T14:54:52;94307.97;;;9.65;100.00
4590;BME280;2307;48.448;9.216;2023-04-01T14:57:22;94300.06;;;9.65;100.00
4590;BME280;2307;48.448;9.216;2023-04-01T14:59:51;94310.38;;;9.71;100.00